Time;durP1;ratioP1;P1;durP2;ratioP2;P2;SDS_P1;SDS_P2;PMS_P1;PMS_P2;Temp;Humidity;BMP_temperature;BMP_pressure;BME280_temperature;BME280_humidity;BME280_pressure;Samples;Min_cycle;Max_cycle;Signal;HPM_P1;HPM_P2
2022/05/03 00:01:49;;;;;;;1999.90;999.90;;;11.80;99.90;;;;;;4879389;29;20032;-75
2022/05/03 00:04:26;;;;;;;1999.90;999.90;;;11.80;99.90;;;;;;4879050;29;20033;-76
2022/05/03 00:07:03;;;;;;;1999.90;999.90;;;11.80;99.90;;;;;;4877971;29;20085;-79
2022/05/03 00:09:46;;;;;;;1999.90;999.90;;;11.80;99.90;;;;;;4879201;29;20029;-77
2022/05/03 00:12:19;;;;;;;1999.90;999.90;;;11.70;99.90;;;;;;4879350;29;20088;-77
2022/05/03 00:14:49;;;;;;;1999.90;999.90;;;11.70;99.90;;;;;;4879224;29;20501;-77
2022/05/03 00:17:18;;;;;;;1999.90;999.90;;;11.70;99.90;;;;;;4877661;29;20033;-76
2022/05/03 00:19:44;;;;;;;1999.90;999.90;;;11.70;99.90;;;;;;4878729;29;20442;-76
2022/05/03 00:22:12;;;;;;;1999.90;999.90;;;11.70;99.90;;;;;;4879118;29;20437;-77
2022/05/03 00:24:39;;;;;;;1999.90;999.90;;;11.70;99.90;;;;;;4879296;29;20045;-77
2022/05/03 00:27:05;;;;;;;1999.90;999.90;;;11.60;99.90;;;;;;4878858;29;20029;-78
2022/05/03 00:29:33;;;;;;;1999.90;999.90;;;11.60;99.90;;;;;;4878053;29;20029;-77
2022/05/03 00:32:03;;;;;;;1999.90;999.90;;;11.60;99.90;;;;;;4862276;29;20397;-77
2022/05/03 00:34:32;;;;;;;1999.90;999.90;;;11.60;99.90;;;;;;4878612;29;20025;-77
2022/05/03 00:36:57;;;;;;;1999.90;999.90;;;11.60;99.90;;;;;;4862371;29;20033;-77
2022/05/03 00:39:23;;;;;;;1999.90;999.90;;;11.50;99.90;;;;;;4897461;29;20091;-77
2022/05/03 00:42:16;;;;;;;1999.90;999.90;;;11.50;99.90;;;;;;4916419;29;20071;-77
2022/05/03 00:45:08;;;;;;;1999.90;999.90;;;11.50;99.90;;;;;;4916497;29;20039;-77
2022/05/03 00:47:50;;;;;;;1999.90;999.90;;;11.50;99.90;;;;;;4918222;29;20254;-76
2022/05/03 00:50:34;;;;;;;1999.90;999.90;;;11.40;99.90;;;;;;4916258;29;20091;-77
2022/05/03 00:53:12;;;;;;;1999.90;999.90;;;11.40;99.90;;;;;;4916486;29;20051;-77
2022/05/03 00:56:15;;;;;;;1999.90;999.90;;;11.40;99.90;;;;;;4882625;29;20401;-76
2022/05/03 00:59:09;;;;;;;1999.90;999.90;;;11.40;99.90;;;;;;4881512;29;20450;-76
2022/05/03 01:01:44;;;;;;;1999.90;999.90;;;11.30;99.90;;;;;;4881499;29;20629;-76
2022/05/03 01:04:19;;;;;;;1999.90;999.90;;;11.30;99.90;;;;;;4881784;29;20033;-76
2022/05/03 01:07:13;;;;;;;1999.90;999.90;;;11.30;99.90;;;;;;4881103;29;20040;-77
2022/05/03 01:09:48;;;;;;;1999.90;999.90;;;11.30;99.90;;;;;;4882606;29;20111;-76
2022/05/03 01:12:38;;;;;;;1999.90;999.90;;;11.30;99.90;;;;;;4882086;29;20119;-77
2022/05/03 01:15:07;;;;;;;1999.90;999.90;;;11.30;99.90;;;;;;4881301;29;20029;-76
2022/05/03 01:17:38;;;;;;;1999.90;999.90;;;11.20;99.90;;;;;;4882551;29;20061;-77
2022/05/03 01:20:06;;;;;;;1999.90;999.90;;;11.20;99.90;;;;;;4881699;29;20033;-78
2022/05/03 01:23:04;;;;;;;1999.90;999.90;;;11.10;99.90;;;;;;4880940;29;20425;-77
2022/05/03 01:25:50;;;;;;;1999.90;999.90;;;11.10;99.90;;;;;;4882158;29;20025;-77
2022/05/03 01:28:19;;;;;;;1999.90;999.90;;;11.00;99.90;;;;;;4881627;29;20496;-77
2022/05/03 01:30:49;;;;;;;1999.90;999.90;;;11.00;99.90;;;;;;4881158;29;20021;-77
2022/05/03 01:33:23;;;;;;;1999.90;999.90;;;10.90;99.90;;;;;;4881981;29;20086;-77
2022/05/03 01:35:54;;;;;;;1999.90;999.90;;;10.90;99.90;;;;;;4880452;29;20053;-77
2022/05/03 01:38:53;;;;;;;1999.90;999.90;;;10.90;99.90;;;;;;4883848;29;20111;-77
2022/05/03 01:41:39;;;;;;;1999.90;999.90;;;10.90;99.90;;;;;;4919026;29;20038;-77
2022/05/03 01:44:25;;;;;;;1999.90;999.90;;;10.90;99.90;;;;;;4919278;29;20060;-77
2022/05/03 01:46:57;;;;;;;1999.90;999.90;;;10.90;99.90;;;;;;4919313;29;20027;-77
2022/05/03 01:50:19;;;;;;;1999.90;999.90;;;10.90;99.90;;;;;;4918730;29;20063;-76
2022/05/03 01:52:54;;;;;;;1999.90;999.90;;;10.80;99.90;;;;;;4860927;29;20109;-77
2022/05/03 01:55:25;;;;;;;1999.90;999.90;;;10.80;99.90;;;;;;4849700;29;20049;-77
2022/05/03 01:58:10;;;;;;;1999.90;999.90;;;10.80;99.90;;;;;;4842100;29;20049;-78
2022/05/03 02:00:36;;;;;;;1999.90;999.90;;;10.80;99.90;;;;;;4842560;29;20049;-77
2022/05/03 02:03:16;;;;;;;1999.90;999.90;;;10.80;99.90;;;;;;4842249;29;20038;-77
2022/05/03 02:05:57;;;;;;;1999.90;999.90;;;10.80;99.90;;;;;;4842231;29;20034;-77
2022/05/03 02:08:24;;;;;;;1999.90;999.90;;;10.80;99.90;;;;;;4841596;29;20042;-77
2022/05/03 02:11:02;;;;;;;1999.90;999.90;;;10.80;99.90;;;;;;4841459;29;20379;-77
2022/05/03 02:17:04;;;;;;;1999.90;999.90;;;10.80;99.90;;;;;;4842488;29;20552;-77
2022/05/03 02:19:51;;;;;;;1999.90;999.90;;;10.90;99.90;;;;;;4841587;29;20057;-77
2022/05/03 02:22:37;;;;;;;1999.90;999.90;;;10.90;99.90;;;;;;4842079;29;20139;-77
2022/05/03 02:25:11;;;;;;;1999.90;999.90;;;10.80;99.90;;;;;;4842035;29;20057;-77
2022/05/03 02:27:42;;;;;;;1999.90;999.90;;;10.80;99.90;;;;;;4894595;29;20388;-77
2022/05/03 02:30:08;;;;;;;1999.90;999.90;;;10.80;99.90;;;;;;4879831;29;20032;-77
2022/05/03 02:32:41;;;;;;;1999.90;999.90;;;10.80;99.90;;;;;;4880999;29;20448;-77
2022/05/03 02:35:13;;;;;;;1999.90;999.90;;;10.80;99.90;;;;;;4880454;29;20036;-76
2022/05/03 02:37:48;;;;;;;1999.90;999.90;;;10.80;99.90;;;;;;4889305;29;20137;-78
2022/05/03 02:40:18;;;;;;;1999.90;999.90;;;10.80;99.90;;;;;;4918376;29;20028;-77
2022/05/03 02:42:45;;;;;;;1999.90;999.90;;;10.80;99.90;;;;;;4917917;29;20048;-76
2022/05/03 02:45:12;;;;;;;1999.90;999.90;;;10.80;99.90;;;;;;4918249;29;20043;-77
2022/05/03 02:48:17;;;;;;;1999.90;999.90;;;10.70;99.90;;;;;;4918053;29;20032;-76
2022/05/03 02:50:55;;;;;;;1999.90;999.90;;;10.70;99.90;;;;;;4917466;29;20024;-77
2022/05/03 02:53:29;;;;;;;1999.90;999.90;;;10.70;99.90;;;;;;4917852;29;20115;-77
2022/05/03 02:56:01;;;;;;;1999.90;999.90;;;10.70;99.90;;;;;;4886791;29;20400;-76
2022/05/03 02:58:45;;;;;;;1999.90;999.90;;;10.60;99.90;;;;;;4878584;29;20033;-76
2022/05/03 03:01:48;;;;;;;1999.90;999.90;;;10.60;99.90;;;;;;4880339;29;20037;-77
2022/05/03 03:04:19;;;;;;;1999.90;999.90;;;10.60;99.90;;;;;;4880080;29;20025;-77
2022/05/03 03:06:46;;;;;;;1999.90;999.90;;;10.50;99.90;;;;;;4880475;29;20037;-77
2022/05/03 03:09:24;;;;;;;1999.90;999.90;;;10.50;99.90;;;;;;4880161;29;20473;-76
2022/05/03 03:12:02;;;;;;;1999.90;999.90;;;10.50;99.90;;;;;;4878481;29;20029;-76
2022/05/03 03:14:42;;;;;;;1999.90;999.90;;;10.40;99.90;;;;;;4880180;29;20032;-77
2022/05/03 03:17:09;;;;;;;1999.90;999.90;;;10.40;99.90;;;;;;4879930;29;20029;-77
2022/05/03 03:19:38;;;;;;;1999.90;999.90;;;10.40;99.90;;;;;;4879380;29;20029;-77
2022/05/03 03:22:12;;;;;;;1999.90;999.90;;;10.30;99.90;;;;;;4879942;29;20117;-76
2022/05/03 03:24:39;;;;;;;1999.90;999.90;;;10.30;99.90;;;;;;4879514;29;20025;-76
2022/05/03 03:27:08;;;;;;;1999.90;999.90;;;10.30;99.90;;;;;;4879656;29;20051;-77
2022/05/03 03:29:35;;;;;;;1999.90;999.90;;;10.30;99.90;;;;;;4879684;29;20033;-77
2022/05/03 03:32:01;;;;;;;1999.90;999.90;;;10.30;99.90;;;;;;4862517;29;20032;-76
2022/05/03 03:34:27;;;;;;;1999.90;999.90;;;10.20;99.90;;;;;;4879419;29;20032;-77
2022/05/03 03:37:04;;;;;;;1999.90;999.90;;;10.30;99.90;;;;;;4879917;29;20051;-77
2022/05/03 03:39:35;;;;;;;1999.90;999.90;;;10.20;99.90;;;;;;4916904;29;20064;-76
2022/05/03 03:42:05;;;;;;;1999.90;999.90;;;10.20;99.90;;;;;;4924105;29;20070;-77
2022/05/03 03:44:33;;;;;;;1999.90;999.90;;;10.20;99.90;;;;;;4911092;29;20064;-76
2022/05/03 03:47:00;;;;;;;1999.90;999.90;;;10.20;99.90;;;;;;4928959;29;20031;-76
2022/05/03 03:49:27;;;;;;;1999.90;999.90;;;10.10;99.90;;;;;;4905715;29;20056;-76
2022/05/03 03:51:54;;;;;;;1999.90;999.90;;;10.10;99.90;;;;;;4918429;29;20072;-76
2022/05/03 03:54:20;;;;;;;1999.90;999.90;;;10.20;99.90;;;;;;4910463;29;20028;-77
2022/05/03 03:56:45;;;;;;;1999.90;999.90;;;10.10;99.90;;;;;;4879451;29;20025;-77
2022/05/03 03:59:14;;;;;;;1999.90;999.90;;;10.10;99.90;;;;;;4877231;29;20055;-78
2022/05/03 04:01:40;;;;;;;1999.90;999.90;;;10.10;99.90;;;;;;4879830;29;20036;-76
2022/05/03 04:04:08;;;;;;;1999.90;999.90;;;10.10;99.90;;;;;;4879322;29;20037;-77
2022/05/03 04:06:34;;;;;;;1999.90;999.90;;;10.20;99.90;;;;;;4879480;29;20021;-76
2022/05/03 04:09:00;;;;;;;1999.90;999.90;;;10.10;99.90;;;;;;4862560;29;20036;-77
2022/05/03 04:11:26;;;;;;;1999.90;999.90;;;10.10;99.90;;;;;;4879122;29;20112;-77
2022/05/03 04:13:52;;;;;;;1999.90;999.90;;;10.10;99.90;;;;;;4878532;29;20037;-76
2022/05/03 04:16:18;;;;;;;1999.90;999.90;;;10.10;99.90;;;;;;4879197;29;20029;-77
2022/05/03 04:18:44;;;;;;;1999.90;999.90;;;10.00;99.90;;;;;;4879129;29;20041;-76
2022/05/03 04:21:19;;;;;;;1999.90;999.90;;;10.00;99.90;;;;;;4878695;29;20033;-77
2022/05/03 04:23:45;;;;;;;1999.90;999.90;;;10.00;99.90;;;;;;4877840;29;20044;-77
2022/05/03 04:26:12;;;;;;;1999.90;999.90;;;10.00;99.90;;;;;;4879094;29;20040;-76
2022/05/03 04:28:39;;;;;;;1999.90;999.90;;;10.00;99.90;;;;;;4879121;29;20035;-76
2022/05/03 04:31:05;;;;;;;1999.90;999.90;;;9.90;99.90;;;;;;4877944;29;20546;-76
2022/05/03 04:33:31;;;;;;;1999.90;999.90;;;9.90;99.90;;;;;;4881577;29;20033;-77
2022/05/03 04:35:57;;;;;;;1999.90;999.90;;;9.80;99.90;;;;;;4882715;29;20032;-78
2022/05/03 04:38:22;;;;;;;1999.90;999.90;;;9.80;99.90;;;;;;4902770;29;20055;-77
2022/05/03 04:40:48;;;;;;;1999.90;999.90;;;9.80;99.90;;;;;;4920241;29;20060;-77
2022/05/03 04:43:14;;;;;;;1999.90;999.90;;;9.80;99.90;;;;;;4920406;29;20115;-77
2022/05/03 04:45:39;;;;;;;1999.90;999.90;;;9.80;99.90;;;;;;4903345;29;20127;-76
2022/05/03 04:48:06;;;;;;;1999.90;999.90;;;9.80;99.90;;;;;;4917107;29;20040;-77
2022/05/03 04:50:31;;;;;;;1999.90;999.90;;;9.80;99.90;;;;;;4918120;29;20391;-76
2022/05/03 04:52:57;;;;;;;1999.90;999.90;;;9.80;99.90;;;;;;4902810;29;20132;-76
2022/05/03 04:55:23;;;;;;;1999.90;999.90;;;9.80;99.90;;;;;;4900590;29;20029;-76
2022/05/03 04:57:50;;;;;;;1999.90;999.90;;;9.70;99.90;;;;;;4900846;29;20108;-76
2022/05/03 05:00:16;;;;;;;1999.90;999.90;;;9.70;99.90;;;;;;4902180;29;20028;-77
2022/05/03 05:02:42;;;;;;;1999.90;999.90;;;9.80;99.90;;;;;;4867469;29;20407;-77
2022/05/03 05:05:08;;;;;;;1999.90;999.90;;;9.80;99.90;;;;;;4900712;29;20040;-77
2022/05/03 05:07:33;;;;;;;1999.90;999.90;;;9.80;99.90;;;;;;4919636;29;20032;-76
2022/05/03 05:12:43;;;;;;;1999.90;999.90;;;9.80;99.90;;;;;;4919839;29;20083;-77
2022/05/03 05:15:09;;;;;;;1999.90;999.90;;;9.80;99.90;;;;;;4902450;29;20070;-77
2022/05/03 05:17:35;;;;;;;1999.90;999.90;;;9.80;99.90;;;;;;4919526;29;20029;-77
2022/05/03 05:20:01;;;;;;;1999.90;999.90;;;9.90;99.90;;;;;;4919070;29;20095;-77
2022/05/03 05:22:26;;;;;;;1999.90;999.90;;;9.90;99.90;;;;;;4919374;29;20128;-77
2022/05/03 05:24:52;;;;;;;1999.90;999.90;;;10.00;99.90;;;;;;4902839;29;20377;-76
2022/05/03 05:27:18;;;;;;;1999.90;999.90;;;10.00;99.90;;;;;;4930073;29;20032;-77
2022/05/03 05:29:44;;;;;;;1999.90;999.90;;;10.00;99.90;;;;;;4903378;29;20036;-77
2022/05/03 05:32:10;;;;;;;1999.90;999.90;;;10.10;99.90;;;;;;4898549;29;20112;-76
2022/05/03 05:34:35;;;;;;;1999.90;999.90;;;10.10;99.90;;;;;;4883031;29;20092;-76
2022/05/03 05:37:01;;;;;;;1999.90;999.90;;;10.10;99.90;;;;;;4900104;29;20021;-76
2022/05/03 05:39:27;;;;;;;1999.90;999.90;;;10.20;99.90;;;;;;4918539;29;20036;-77
2022/05/03 05:41:57;;;;;;;1999.90;999.90;;;10.20;99.90;;;;;;4904793;29;20048;-77
2022/05/03 05:44:23;;;;;;;1999.90;999.90;;;10.20;99.90;;;;;;4895196;29;20492;-77
2022/05/03 05:46:49;;;;;;;1999.90;999.90;;;10.30;99.90;;;;;;4880923;29;20485;-77
2022/05/03 05:49:14;;;;;;;1999.90;999.90;;;10.30;99.90;;;;;;4894735;29;20089;-76
2022/05/03 05:51:40;;;;;;;1999.90;999.90;;;10.40;99.90;;;;;;4887923;29;20048;-77
2022/05/03 05:54:06;;;;;;;1999.90;999.90;;;10.50;99.90;;;;;;4915627;29;20035;-80
2022/05/03 05:56:31;;;;;;;1999.90;999.90;;;10.50;99.90;;;;;;4880751;29;20041;-77
2022/05/03 05:58:57;;;;;;;1999.90;999.90;;;10.60;99.90;;;;;;4880414;29;20053;-77
2022/05/03 06:01:26;;;;;;;1999.90;999.90;;;10.60;99.90;;;;;;4898373;29;20403;-77
2022/05/03 06:03:52;;;;;;;1999.90;999.90;;;10.70;99.90;;;;;;4912648;29;20035;-77
2022/05/03 06:06:18;;;;;;;1999.90;999.90;;;10.80;99.90;;;;;;4886861;29;20036;-78
2022/05/03 06:08:43;;;;;;;1999.90;999.90;;;11.00;99.90;;;;;;4917643;29;20450;-78
2022/05/03 06:11:09;;;;;;;1999.90;999.90;;;11.20;99.90;;;;;;4906241;29;20104;-77
2022/05/03 06:13:35;;;;;;;1999.90;999.90;;;11.30;99.90;;;;;;4905328;29;20088;-77
2022/05/03 06:16:11;;;;;;;1999.90;999.90;;;11.50;99.90;;;;;;4889237;29;20021;-78
2022/05/03 06:18:37;;;;;;;1999.90;999.90;;;11.60;99.90;;;;;;4915460;29;20032;-78
2022/05/03 06:21:10;;;;;;;1999.90;999.90;;;11.80;99.90;;;;;;4902868;29;20381;-77
2022/05/03 06:23:37;;;;;;;1999.90;999.90;;;11.90;99.90;;;;;;4899170;29;20384;-77
2022/05/03 06:26:05;;;;;;;1999.90;999.90;;;12.00;99.90;;;;;;4901199;29;20480;-77
2022/05/03 06:28:34;;;;;;;1999.90;999.90;;;11.90;99.90;;;;;;4909374;29;20467;-77
2022/05/03 06:30:59;;;;;;;1999.90;999.90;;;11.90;99.90;;;;;;4904587;29;20031;-78
2022/05/03 06:33:25;;;;;;;1999.90;999.90;;;11.90;99.90;;;;;;4893596;29;20037;-78
2022/05/03 06:35:51;;;;;;;1999.90;999.90;;;11.90;99.90;;;;;;4861337;29;20122;-77
2022/05/03 06:38:17;;;;;;;1999.90;999.90;;;11.90;99.90;;;;;;4896750;29;20495;-78
2022/05/03 06:40:43;;;;;;;1999.90;999.90;;;12.00;99.90;;;;;;4900951;29;20029;-76
2022/05/03 06:43:09;;;;;;;1999.90;999.90;;;12.00;99.90;;;;;;4895873;29;20037;-78
2022/05/03 06:45:35;;;;;;;1999.90;999.90;;;12.00;99.90;;;;;;4880554;29;20029;-78
2022/05/03 06:48:01;;;;;;;1999.90;999.90;;;12.10;99.90;;;;;;4880329;29;20060;-78
2022/05/03 06:50:29;;;;;;;1999.90;999.90;;;12.00;99.90;;;;;;4895460;29;20080;-78
2022/05/03 06:52:55;;;;;;;1999.90;999.90;;;12.10;99.90;;;;;;4877074;29;20029;-78
2022/05/03 06:55:21;;;;;;;1999.90;999.90;;;12.10;99.90;;;;;;4897179;29;20991;-77
2022/05/03 06:57:48;;;;;;;1999.90;999.90;;;12.30;99.90;;;;;;4906412;29;20032;-78
2022/05/03 07:00:14;;;;;;;1999.90;999.90;;;12.40;99.90;;;;;;4896853;29;20024;-77
2022/05/03 07:02:41;;;;;;;1999.90;999.90;;;12.60;99.90;;;;;;4903496;29;20107;-77
2022/05/03 07:05:07;;;;;;;1999.90;999.90;;;12.60;99.90;;;;;;4894941;29;20025;-77
2022/05/03 07:07:33;;;;;;;1999.90;999.90;;;12.70;99.90;;;;;;4895421;29;20064;-77
2022/05/03 07:10:02;;;;;;;1999.90;999.90;;;12.70;99.90;;;;;;4891916;29;20153;-77
2022/05/03 07:12:28;;;;;;;1999.90;999.90;;;12.80;99.90;;;;;;4903049;29;20037;-78
2022/05/03 07:14:59;;;;;;;1999.90;999.90;;;12.90;99.90;;;;;;4896953;29;20036;-77
2022/05/03 07:22:53;;;;;;;1999.90;999.90;;;13.20;99.90;;;;;;4893572;29;20051;-76
2022/05/03 07:25:19;;;;;;;1999.90;999.90;;;13.30;99.90;;;;;;4890687;29;20032;-77
2022/05/03 07:27:48;;;;;;;1999.90;999.90;;;13.30;99.90;;;;;;4869621;29;20049;-77
2022/05/03 07:30:16;;;;;;;1999.90;999.90;;;13.50;99.90;;;;;;4894857;29;20088;-77
2022/05/03 07:32:43;;;;;;;1999.90;999.90;;;13.80;99.90;;;;;;4898050;29;20043;-77
2022/05/03 07:35:09;;;;;;;1999.90;999.90;;;14.00;99.90;;;;;;4891344;29;20098;-77
2022/05/03 07:37:36;;;;;;;1999.90;999.90;;;14.30;99.90;;;;;;4894832;29;20439;-76
2022/05/03 07:40:03;;;;;;;1999.90;999.90;;;14.50;99.90;;;;;;4879204;29;20740;-77
2022/05/03 07:42:28;;;;;;;1999.90;999.90;;;14.80;99.90;;;;;;4893748;29;20088;-77
2022/05/03 07:44:54;;;;;;;1999.90;999.90;;;15.20;99.90;;;;;;4876532;29;20128;-77
2022/05/03 07:47:19;;;;;;;1999.90;999.90;;;15.60;99.90;;;;;;4898607;29;20164;-77
2022/05/03 07:49:45;;;;;;;1999.90;999.90;;;16.30;99.90;;;;;;4893542;29;20021;-78
2022/05/03 07:52:11;;;;;;;1999.90;999.90;;;18.20;99.90;;;;;;4900582;29;20156;-75
2022/05/03 07:54:41;;;;;;;1999.90;999.90;;;20.10;98.00;;;;;;4892112;29;20535;-75
2022/05/03 07:57:08;;;;;;;1999.90;999.90;;;20.80;95.40;;;;;;4892380;29;20133;-76
2022/05/03 07:59:34;;;;;;;1999.90;999.90;;;21.80;94.40;;;;;;4891241;29;20040;-75
2022/05/03 08:01:59;;;;;;;1999.90;999.90;;;22.80;92.90;;;;;;4883793;29;20039;-76
2022/05/03 08:04:25;;;;;;;1999.90;999.90;;;23.20;91.80;;;;;;4896932;29;20024;-76
2022/05/03 08:06:51;;;;;;;1999.90;999.90;;;23.60;90.80;;;;;;4886420;29;20041;-75
2022/05/03 08:09:17;;;;;;;1999.90;999.90;;;23.90;90.80;;;;;;4891005;29;20032;-75
2022/05/03 08:11:43;;;;;;;1999.90;999.90;;;24.00;90.50;;;;;;4887583;29;20039;-75
2022/05/03 08:14:09;;;;;;;1999.90;999.90;;;24.50;90.30;;;;;;4896198;29;20449;-76
2022/05/03 08:16:35;;;;;;;1999.90;999.90;;;24.30;89.10;;;;;;4895824;29;20040;-76
2022/05/03 08:19:01;;;;;;;1999.90;999.90;;;23.80;89.90;;;;;;4892703;29;20041;-76
2022/05/03 08:21:27;;;;;;;1999.90;999.90;;;23.60;90.50;;;;;;4878504;29;20060;-75
2022/05/03 08:23:54;;;;;;;1999.90;999.90;;;23.60;90.20;;;;;;4886207;29;20040;-75
2022/05/03 08:26:20;;;;;;;1999.90;999.90;;;24.10;89.60;;;;;;4884664;29;20032;-75
2022/05/03 08:28:46;;;;;;;1999.90;999.90;;;24.50;88.30;;;;;;4886862;29;20022;-76
2022/05/03 08:31:12;;;;;;;1999.90;999.90;;;25.10;88.00;;;;;;4886781;29;20044;-76
2022/05/03 08:33:37;;;;;;;1999.90;999.90;;;25.80;86.70;;;;;;4890233;29;20483;-75
2022/05/03 08:36:04;;;;;;;1999.90;999.90;;;26.00;85.80;;;;;;4889209;29;20033;-76
2022/05/03 08:44:00;;;;;;;1999.90;999.90;;;27.20;83.50;;;;;;4888468;29;20040;-75
2022/05/03 08:46:25;;;;;;;1999.90;999.90;;;27.10;83.00;;;;;;4892418;29;20047;-74
2022/05/03 08:49:00;;;;;;;1999.90;999.90;;;27.30;82.90;;;;;;4891332;29;20453;-76
2022/05/03 08:51:29;;;;;;;1999.90;999.90;;;27.50;81.90;;;;;;4887917;29;20484;-75
2022/05/03 08:53:56;;;;;;;1999.90;999.90;;;28.10;81.80;;;;;;4894029;29;20056;-75
2022/05/03 08:56:22;;;;;;;1999.90;999.90;;;28.30;81.70;;;;;;4896765;29;20091;-75
2022/05/03 08:58:48;;;;;;;1999.90;999.90;;;27.70;80.90;;;;;;4888561;29;20103;-75
2022/05/03 09:01:14;;;;;;;1999.90;999.90;;;26.90;81.10;;;;;;4891089;29;20120;-76
2022/05/03 09:03:40;;;;;;;1999.90;999.90;;;26.60;82.10;;;;;;4890273;29;20033;-75
2022/05/03 09:06:07;;;;;;;1999.90;999.90;;;27.60;81.50;;;;;;4875520;29;20045;-75
2022/05/03 09:08:33;;;;;;;1999.90;999.90;;;28.10;81.20;;;;;;4887874;29;20089;-75
2022/05/03 09:11:02;;;;;;;1999.90;999.90;;;28.30;79.90;;;;;;4888129;29;20108;-75
2022/05/03 09:13:28;;;;;;;1999.90;999.90;;;28.50;80.60;;;;;;4886029;29;20127;-75
2022/05/03 09:15:58;;;;;;;1999.90;999.90;;;28.70;80.80;;;;;;4874554;29;20462;-76
2022/05/03 09:18:29;;;;;;;1999.90;999.90;;;28.80;80.30;;;;;;4876062;29;20774;-75
2022/05/03 09:23:50;;;;;;;1999.90;999.90;;;29.20;78.70;;;;;;4892257;29;20031;-76
2022/05/03 09:26:23;;;;;;;1999.90;999.90;;;28.70;78.70;;;;;;4898299;29;20032;-76
2022/05/03 09:29:03;;;;;;;1999.90;999.90;;;29.10;78.20;;;;;;4899038;29;20055;-75
2022/05/03 09:31:36;;;;;;;1999.90;999.90;;;28.70;78.60;;;;;;4896118;29;20059;-76
2022/05/03 09:34:25;;;;;;;1999.90;999.90;;;29.40;80.50;;;;;;4896493;29;20024;-75
2022/05/03 09:37:00;;;;;;;1999.90;999.90;;;29.30;77.50;;;;;;4874356;29;20036;-75
2022/05/03 09:39:28;;;;;;;1999.90;999.90;;;28.90;79.90;;;;;;4895884;29;20499;-76
2022/05/03 09:42:16;;;;;;;1999.90;999.90;;;29.60;78.10;;;;;;4892429;29;20100;-76
2022/05/03 09:44:57;;;;;;;1999.90;999.90;;;30.20;77.60;;;;;;4878602;29;20044;-76
2022/05/03 09:47:25;;;;;;;1999.90;999.90;;;30.50;76.90;;;;;;4896079;29;20091;-75
2022/05/03 09:49:51;;;;;;;1999.90;999.90;;;30.50;76.90;;;;;;4897890;29;20113;-75
2022/05/03 09:52:36;;;;;;;1999.90;999.90;;;29.80;76.90;;;;;;4898554;29;20040;-76
2022/05/03 09:55:07;;;;;;;1999.90;999.90;;;30.10;77.00;;;;;;4893084;29;20183;-76
2022/05/03 09:57:36;;;;;;;1999.90;999.90;;;31.20;76.80;;;;;;4895648;29;20032;-74
2022/05/03 10:00:08;;;;;;;1999.90;999.90;;;31.30;75.60;;;;;;4902320;29;20028;-75
2022/05/03 10:02:37;;;;;;;1999.90;999.90;;;31.20;75.80;;;;;;4895107;29;20483;-75
2022/05/03 10:05:03;;;;;;;1999.90;999.90;;;30.70;75.20;;;;;;4882564;29;20052;-75
2022/05/03 10:07:32;;;;;;;1999.90;999.90;;;30.40;74.70;;;;;;4895406;29;20083;-76
2022/05/03 10:09:58;;;;;;;1999.90;999.90;;;30.30;75.90;;;;;;4895286;29;20140;-75
2022/05/03 10:12:23;;;;;;;1999.90;999.90;;;30.10;74.60;;;;;;4888751;29;20514;-76
2022/05/03 10:14:49;;;;;;;1999.90;999.90;;;30.40;75.90;;;;;;4891635;29;20222;-75
2022/05/03 10:20:36;;;;;;;1999.90;999.90;;;30.90;75.00;;;;;;4891936;29;20043;-76
2022/05/03 10:23:02;;;;;;;1999.90;999.90;;;30.50;74.30;;;;;;4896542;29;20048;-74
2022/05/03 10:28:04;;;;;;;1999.90;999.90;;;29.30;73.10;;;;;;5714675;23;20068;-75
2022/05/03 10:30:32;;;;;;;1999.90;999.90;;;29.00;75.10;;;;;;4889854;29;20127;-75
2022/05/03 10:33:19;;;;;;;1999.90;999.90;;;28.70;73.20;;;;;;4895246;29;20076;-76
2022/05/03 10:35:46;;;;;;;1999.90;999.90;;;29.30;74.70;;;;;;4894928;29;20028;-76
2022/05/03 10:38:12;;;;;;;1999.90;999.90;;;30.50;74.60;;;;;;4892439;29;20068;-75
2022/05/03 10:40:47;;;;;;;1999.90;999.90;;;30.40;73.00;;;;;;4888866;29;20131;-75
2022/05/03 10:43:27;;;;;;;1999.90;999.90;;;30.10;71.40;;;;;;4896708;29;20029;-76
2022/05/03 10:45:58;;;;;;;1999.90;999.90;;;29.50;71.60;;;;;;4893642;29;20121;-76
2022/05/03 10:48:30;;;;;;;1999.90;999.90;;;29.10;72.90;;;;;;4891598;29;20098;-76
2022/05/03 10:51:04;;;;;;;1999.90;999.90;;;29.60;72.90;;;;;;4890045;29;20111;-76
2022/05/03 10:53:43;;;;;;;1999.90;999.90;;;29.50;72.10;;;;;;4904541;29;20774;-76
2022/05/03 10:56:20;;;;;;;1999.90;999.90;;;29.40;71.80;;;;;;4896021;29;20044;-75
2022/05/03 10:59:03;;;;;;;1999.90;999.90;;;29.60;72.60;;;;;;4887698;29;20054;-76
2022/05/03 11:01:29;;;;;;;1999.90;999.90;;;29.40;72.80;;;;;;4893436;29;20040;-75
2022/05/03 11:03:57;;;;;;;1999.90;999.90;;;29.40;74.20;;;;;;4901321;29;20492;-74
2022/05/03 11:06:23;;;;;;;1999.90;999.90;;;29.00;72.10;;;;;;4892541;29;20032;-76
2022/05/03 11:11:44;;;;;;;1999.90;999.90;;;28.50;73.00;;;;;;4895484;29;20047;-76
2022/05/03 11:14:24;;;;;;;1999.90;999.90;;;27.80;74.80;;;;;;4884662;29;20027;-74
2022/05/03 11:17:05;;;;;;;1999.90;999.90;;;25.70;76.20;;;;;;4887688;29;20032;-74
2022/05/03 11:19:55;;;;;;;1999.90;999.90;;;24.70;80.00;;;;;;4884259;29;20485;-75
2022/05/03 11:22:33;;;;;;;1999.90;999.90;;;26.20;78.10;;;;;;4892544;29;20160;-75
2022/05/03 11:25:04;;;;;;;1999.90;999.90;;;28.20;74.60;;;;;;4884755;29;20043;-75
2022/05/03 11:27:31;;;;;;;1999.90;999.90;;;29.20;72.80;;;;;;4885259;29;20040;-76
2022/05/03 11:30:00;;;;;;;1999.90;999.90;;;29.70;72.50;;;;;;4880824;29;20031;-76
2022/05/03 11:32:31;;;;;;;1999.90;999.90;;;30.00;72.90;;;;;;4897817;29;20029;-76
2022/05/03 11:35:02;;;;;;;1999.90;999.90;;;29.10;70.80;;;;;;4881025;29;20013;-75
2022/05/03 11:37:28;;;;;;;1999.90;999.90;;;26.50;74.00;;;;;;4898610;29;20112;-75
2022/05/03 11:40:01;;;;;;;1999.90;999.90;;;25.20;76.30;;;;;;4895550;29;20551;-75
2022/05/03 11:42:26;;;;;;;1999.90;999.90;;;24.60;76.10;;;;;;4895173;29;20052;-75
2022/05/03 11:44:52;;;;;;;1999.90;999.90;;;25.40;76.50;;;;;;4886137;29;20458;-75
2022/05/03 11:47:18;;;;;;;1999.90;999.90;;;26.40;74.90;;;;;;4885688;29;20029;-74
2022/05/03 11:49:44;;;;;;;1999.90;999.90;;;27.50;76.20;;;;;;4890053;29;20033;-75
2022/05/03 11:57:42;;;;;;;1999.90;999.90;;;26.40;75.60;;;;;;4893341;29;20048;-74
2022/05/03 12:00:11;;;;;;;1999.90;999.90;;;24.90;76.40;;;;;;4893674;29;20028;-75
2022/05/03 12:02:44;;;;;;;1999.90;999.90;;;24.40;78.30;;;;;;4900608;29;20024;-74
2022/05/03 12:05:16;;;;;;;1999.90;999.90;;;25.10;78.50;;;;;;4901733;29;20021;-75
2022/05/03 12:07:53;;;;;;;1999.90;999.90;;;25.60;76.90;;;;;;4893265;29;20028;-75
2022/05/03 12:10:26;;;;;;;1999.90;999.90;;;24.70;77.80;;;;;;4899626;29;20025;-76
2022/05/03 12:13:27;;;;;;;1999.90;999.90;;;24.10;79.10;;;;;;4903443;29;20025;-75
2022/05/03 12:15:58;;;;;;;1999.90;999.90;;;23.80;79.50;;;;;;4882668;29;20059;-75
2022/05/03 12:18:37;;;;;;;1999.90;999.90;;;25.60;80.30;;;;;;4882312;29;20032;-75
2022/05/03 12:21:12;;;;;;;1999.90;999.90;;;26.10;76.80;;;;;;4887252;29;20041;-75
2022/05/03 12:23:39;;;;;;;1999.90;999.90;;;25.70;75.30;;;;;;4889887;29;20484;-75
2022/05/03 12:26:25;;;;;;;1999.90;999.90;;;25.70;76.70;;;;;;4891829;29;20060;-75
2022/05/03 12:28:55;;;;;;;1999.90;999.90;;;26.80;75.60;;;;;;4874881;29;20057;-75
2022/05/03 12:31:23;;;;;;;1999.90;999.90;;;27.00;74.10;;;;;;4895731;29;20020;-75
2022/05/03 12:33:57;;;;;;;1999.90;999.90;;;26.00;74.40;;;;;;4902130;29;20036;-75
2022/05/03 12:36:39;;;;;;;1999.90;999.90;;;25.00;75.40;;;;;;4906304;29;20404;-75
2022/05/03 12:39:15;;;;;;;1999.90;999.90;;;24.80;77.80;;;;;;4907735;29;20546;-75
2022/05/03 12:41:41;;;;;;;1999.90;999.90;;;24.60;76.70;;;;;;4891030;29;20120;-75
2022/05/03 12:44:11;;;;;;;1999.90;999.90;;;24.20;78.20;;;;;;4894125;29;20523;-76
2022/05/03 12:46:38;;;;;;;1999.90;999.90;;;24.50;79.00;;;;;;4889112;29;20039;-79
2022/05/03 12:49:11;;;;;;;1999.90;999.90;;;25.10;76.90;;;;;;4910236;29;20039;-78
2022/05/03 12:51:39;;;;;;;1999.90;999.90;;;25.00;77.90;;;;;;4890425;29;20025;-79